Time;durP1;ratioP1;P1;durP2;ratioP2;P2;SDS_P1;SDS_P2;PMS_P1;PMS_P2;Temp;Humidity;BMP_temperature;BMP_pressure;BME280_temperature;BME280_humidity;BME280_pressure;Samples;Min_cycle;Max_cycle;Signal;HPM_P1;HPM_P2
2021/10/11 00:00:25;;;;;;;10.95;1.80;;;;;;;;;;5034035;28;20118;-59
2021/10/11 00:02:52;;;;;;;7.38;1.55;;;;;;;;;;5055043;28;20056;-61
2021/10/11 00:05:18;;;;;;;8.27;1.60;;;;;;;;;;5040701;28;20052;-65
2021/10/11 00:07:45;;;;;;;6.75;1.50;;;;;;;;;;5043922;28;20059;-62
2021/10/11 00:10:18;;;;;;;5.80;1.55;;;;;;;;;;5033140;28;20049;-54
2021/10/11 00:12:45;;;;;;;5.75;1.63;;;;;;;;;;5040547;28;20053;-54
2021/10/11 00:15:12;;;;;;;13.38;2.08;;;;;;;;;;5030843;28;20067;-63
2021/10/11 00:17:38;;;;;;;4.90;1.52;;;;;;;;;;5039863;28;20091;-56
2021/10/11 00:20:06;;;;;;;8.10;1.77;;;;;;;;;;5034489;28;20036;-62
2021/10/11 00:22:32;;;;;;;6.43;1.50;;;;;;;;;;5038396;28;20039;-64
2021/10/11 00:24:59;;;;;;;2.70;1.40;;;;;;;;;;5026809;28;20037;-59
2021/10/11 00:27:27;;;;;;;12.00;1.88;;;;;;;;;;5036889;28;20143;-55
2021/10/11 00:29:54;;;;;;;4.88;1.40;;;;;;;;;;5036502;28;20038;-59
2021/10/11 00:32:20;;;;;;;7.50;1.83;;;;;;;;;;5039742;28;20111;-63
2021/10/11 00:34:47;;;;;;;7.13;1.67;;;;;;;;;;5042228;28;20143;-64
2021/10/11 00:37:13;;;;;;;6.13;1.52;;;;;;;;;;5033883;28;20033;-64
2021/10/11 00:39:40;;;;;;;7.57;1.90;;;;;;;;;;5038130;28;20110;-60
2021/10/11 00:42:06;;;;;;;7.13;1.65;;;;;;;;;;5036662;28;20045;-62
2021/10/11 00:44:34;;;;;;;8.55;1.52;;;;;;;;;;5038215;28;20048;-65
2021/10/11 00:47:01;;;;;;;5.25;1.92;;;;;;;;;;5025972;28;20061;-62
2021/10/11 00:49:30;;;;;;;4.03;1.70;;;;;;;;;;5039757;28;20119;-60
2021/10/11 00:51:56;;;;;;;5.60;1.85;;;;;;;;;;5033120;28;20037;-56
2021/10/11 00:54:23;;;;;;;8.93;1.42;;;;;;;;;;5028557;28;20100;-58
2021/10/11 00:56:50;;;;;;;6.28;1.70;;;;;;;;;;5035285;28;20044;-57
2021/10/11 00:59:24;;;;;;;6.63;1.60;;;;;;;;;;5037143;28;20057;-56
2021/10/11 01:01:52;;;;;;;5.30;1.85;;;;;;;;;;5034256;28;20041;-62
2021/10/11 01:04:19;;;;;;;6.53;1.70;;;;;;;;;;5022916;28;20041;-56
2021/10/11 01:06:45;;;;;;;5.80;1.55;;;;;;;;;;5037948;28;20297;-60
2021/10/11 01:09:12;;;;;;;9.50;2.30;;;;;;;;;;5040648;28;20052;-57
2021/10/11 01:11:40;;;;;;;4.82;1.80;;;;;;;;;;5037371;28;20138;-58
2021/10/11 01:14:07;;;;;;;7.20;1.88;;;;;;;;;;5043222;28;20057;-58
2021/10/11 01:16:33;;;;;;;7.47;1.90;;;;;;;;;;5040044;28;20042;-59
2021/10/11 01:19:01;;;;;;;12.43;2.20;;;;;;;;;;5029190;28;20585;-61
2021/10/11 01:21:29;;;;;;;6.63;1.80;;;;;;;;;;5035907;28;20057;-59
2021/10/11 01:23:56;;;;;;;7.65;1.83;;;;;;;;;;5027602;28;20046;-56
2021/10/11 01:26:22;;;;;;;12.60;1.63;;;;;;;;;;5026231;28;20045;-59
2021/10/11 01:28:49;;;;;;;6.28;1.83;;;;;;;;;;5027100;28;20034;-64
2021/10/11 01:31:17;;;;;;;7.78;1.52;;;;;;;;;;5021603;28;20034;-58
2021/10/11 01:33:44;;;;;;;8.00;1.63;;;;;;;;;;5036939;28;20043;-62
2021/10/11 01:36:11;;;;;;;6.22;1.60;;;;;;;;;;5046292;28;20044;-62
2021/10/11 01:38:43;;;;;;;7.55;1.55;;;;;;;;;;5040491;28;20033;-63
2021/10/11 01:41:09;;;;;;;9.57;1.65;;;;;;;;;;5044327;28;20039;-59
2021/10/11 01:43:36;;;;;;;7.55;1.92;;;;;;;;;;5036024;28;20078;-62
2021/10/11 01:46:03;;;;;;;8.57;1.90;;;;;;;;;;5044329;28;20029;-59
2021/10/11 01:48:29;;;;;;;9.25;1.42;;;;;;;;;;5053863;28;20045;-56
2021/10/11 01:50:56;;;;;;;6.45;1.70;;;;;;;;;;5040641;28;20077;-59
2021/10/11 01:53:23;;;;;;;9.25;1.83;;;;;;;;;;5037252;28;20060;-60
2021/10/11 01:55:51;;;;;;;5.30;1.88;;;;;;;;;;5034371;28;20123;-58
2021/10/11 01:58:17;;;;;;;10.13;1.88;;;;;;;;;;5031971;28;20049;-57
2021/10/11 02:00:44;;;;;;;8.57;1.95;;;;;;;;;;5036160;28;20040;-63
2021/10/11 02:03:10;;;;;;;6.10;1.85;;;;;;;;;;5025573;28;20062;-58
2021/10/11 02:05:37;;;;;;;7.45;1.65;;;;;;;;;;5040785;28;20044;-59
2021/10/11 02:08:04;;;;;;;8.10;2.00;;;;;;;;;;5045577;28;20041;-61
2021/10/11 02:10:31;;;;;;;7.18;2.40;;;;;;;;;;5024886;28;20042;-58
2021/10/11 02:12:59;;;;;;;15.43;2.25;;;;;;;;;;5024090;28;20045;-56
2021/10/11 02:15:25;;;;;;;6.50;1.63;;;;;;;;;;5021127;28;20030;-58
2021/10/11 02:17:52;;;;;;;12.15;1.85;;;;;;;;;;5024611;28;20109;-60
2021/10/11 02:20:19;;;;;;;8.70;2.03;;;;;;;;;;5019697;28;20037;-63
2021/10/11 02:22:45;;;;;;;3.90;1.40;;;;;;;;;;5024205;28;20030;-62
2021/10/11 02:25:12;;;;;;;6.25;1.85;;;;;;;;;;5021334;28;20120;-61
2021/10/11 02:27:39;;;;;;;7.35;1.38;;;;;;;;;;5024691;28;20128;-60
2021/10/11 02:30:07;;;;;;;9.38;1.75;;;;;;;;;;5026315;28;20135;-64
2021/10/11 02:32:34;;;;;;;7.60;1.48;;;;;;;;;;5043470;28;20051;-62
2021/10/11 02:35:00;;;;;;;6.07;1.58;;;;;;;;;;5038638;28;20065;-60
2021/10/11 02:37:28;;;;;;;12.05;1.83;;;;;;;;;;5024320;28;20045;-58
2021/10/11 02:39:56;;;;;;;6.63;1.63;;;;;;;;;;5020627;28;20160;-61
2021/10/11 02:42:23;;;;;;;5.28;1.48;;;;;;;;;;5024287;28;20275;-60
2021/10/11 02:44:49;;;;;;;9.15;1.88;;;;;;;;;;5008789;28;20128;-60
2021/10/11 02:47:19;;;;;;;6.25;1.67;;;;;;;;;;5016461;28;20045;-53
2021/10/11 02:49:45;;;;;;;10.00;2.50;;;;;;;;;;5040202;28;20050;-62
2021/10/11 02:52:12;;;;;;;5.70;1.73;;;;;;;;;;5024823;28;20033;-56
2021/10/11 02:54:38;;;;;;;10.30;1.90;;;;;;;;;;5025473;28;20037;-61
2021/10/11 02:57:06;;;;;;;8.95;1.65;;;;;;;;;;5025672;28;20041;-58
2021/10/11 02:59:33;;;;;;;13.85;2.00;;;;;;;;;;5045495;28;20041;-61
2021/10/11 03:02:00;;;;;;;14.30;1.80;;;;;;;;;;5040440;28;20037;-62
2021/10/11 03:04:28;;;;;;;7.45;1.70;;;;;;;;;;5045957;28;20038;-61
2021/10/11 03:06:55;;;;;;;7.85;1.63;;;;;;;;;;5041276;28;20049;-59
2021/10/11 03:09:21;;;;;;;7.35;1.83;;;;;;;;;;5049898;28;20166;-63
2021/10/11 03:11:49;;;;;;;11.00;1.85;;;;;;;;;;5033666;28;20052;-55
2021/10/11 03:14:16;;;;;;;5.32;1.60;;;;;;;;;;5024991;28;20038;-53
2021/10/11 03:16:42;;;;;;;8.65;1.70;;;;;;;;;;5023107;28;20025;-59
2021/10/11 03:19:09;;;;;;;9.10;1.85;;;;;;;;;;5025720;28;20041;-59
2021/10/11 03:21:37;;;;;;;7.28;1.65;;;;;;;;;;5020468;28;20042;-59
2021/10/11 03:24:04;;;;;;;6.35;1.67;;;;;;;;;;5041304;28;20061;-62
2021/10/11 03:26:30;;;;;;;5.90;1.70;;;;;;;;;;5044396;28;20051;-54
2021/10/11 03:28:57;;;;;;;4.95;1.50;;;;;;;;;;5023151;28;20092;-60
2021/10/11 03:31:23;;;;;;;8.73;1.88;;;;;;;;;;5025413;28;20033;-55
2021/10/11 03:33:50;;;;;;;5.30;1.38;;;;;;;;;;5021860;28;20119;-61
2021/10/11 03:36:16;;;;;;;7.05;1.83;;;;;;;;;;5023674;28;20033;-61
2021/10/11 03:38:45;;;;;;;13.13;2.30;;;;;;;;;;5020218;28;20034;-56
2021/10/11 03:41:12;;;;;;;8.13;2.00;;;;;;;;;;5021118;28;20030;-58
2021/10/11 03:43:38;;;;;;;6.50;1.92;;;;;;;;;;5021077;28;20045;-56
2021/10/11 03:46:05;;;;;;;6.25;1.67;;;;;;;;;;5025292;28;20034;-61
2021/10/11 03:48:33;;;;;;;6.78;1.70;;;;;;;;;;5027707;28;20105;-61
2021/10/11 03:51:00;;;;;;;7.60;1.50;;;;;;;;;;5041597;28;20029;-61
2021/10/11 03:53:26;;;;;;;11.20;1.50;;;;;;;;;;5026781;28;20040;-61
2021/10/11 03:55:54;;;;;;;9.20;1.63;;;;;;;;;;5041319;28;20048;-58
2021/10/11 03:58:23;;;;;;;4.80;1.40;;;;;;;;;;5032625;28;20096;-59
2021/10/11 04:00:50;;;;;;;6.35;1.42;;;;;;;;;;5024632;28;20339;-57
2021/10/11 04:03:16;;;;;;;7.85;1.58;;;;;;;;;;5021526;28;20062;-58
2021/10/11 04:05:44;;;;;;;3.75;1.33;;;;;;;;;;5045575;28;20052;-54
2021/10/11 04:08:18;;;;;;;7.38;1.40;;;;;;;;;;5045199;28;20033;-58
2021/10/11 04:10:51;;;;;;;5.38;1.20;;;;;;;;;;5044597;28;20052;-58
2021/10/11 04:13:21;;;;;;;9.60;1.63;;;;;;;;;;5045458;28;20060;-60
2021/10/11 04:15:48;;;;;;;7.90;1.20;;;;;;;;;;5040848;28;20041;-59
2021/10/11 04:18:15;;;;;;;6.93;1.23;;;;;;;;;;5044484;28;20033;-55
2021/10/11 04:20:43;;;;;;;8.15;1.45;;;;;;;;;;5021672;28;20034;-55
2021/10/11 04:23:10;;;;;;;5.38;1.40;;;;;;;;;;5023952;28;20115;-52
2021/10/11 04:25:36;;;;;;;6.07;1.27;;;;;;;;;;5030001;28;20048;-52
2021/10/11 04:28:05;;;;;;;5.50;1.13;;;;;;;;;;5023181;28;20033;-48
2021/10/11 04:30:33;;;;;;;8.30;1.55;;;;;;;;;;5047241;28;20072;-53
2021/10/11 04:32:59;;;;;;;8.82;1.35;;;;;;;;;;5042425;28;20041;-52
2021/10/11 04:35:27;;;;;;;7.18;1.33;;;;;;;;;;5030721;28;20052;-60
2021/10/11 04:37:55;;;;;;;11.20;1.48;;;;;;;;;;5024965;28;20062;-60
2021/10/11 04:40:22;;;;;;;;;;;;;;;;;;5026540;28;20135;-64
2021/10/11 04:42:48;;;;;;;2.88;0.90;;;;;;;;;;5043656;28;19921;-64
2021/10/11 04:45:15;;;;;;;4.43;1.30;;;;;;;;;;5037348;28;20045;-64
2021/10/11 04:47:43;;;;;;;3.95;1.50;;;;;;;;;;5043756;28;20081;-63
2021/10/11 04:50:10;;;;;;;3.63;1.40;;;;;;;;;;5037095;28;20037;-62
2021/10/11 04:52:36;;;;;;;5.80;1.60;;;;;;;;;;5023561;28;20319;-57
2021/10/11 04:55:03;;;;;;;6.13;2.13;;;;;;;;;;5024714;28;20046;-58
2021/10/11 04:57:29;;;;;;;3.60;1.55;;;;;;;;;;5036940;28;20037;-57
2021/10/11 04:59:57;;;;;;;7.45;2.00;;;;;;;;;;5043913;28;20038;-62
2021/10/11 05:02:24;;;;;;;6.85;1.80;;;;;;;;;;5038681;28;20033;-61
2021/10/11 05:04:52;;;;;;;5.57;1.70;;;;;;;;;;5043879;28;20046;-59
2021/10/11 05:07:18;;;;;;;4.47;1.60;;;;;;;;;;5039424;28;20129;-53
2021/10/11 05:09:46;;;;;;;5.47;1.75;;;;;;;;;;5041640;28;20285;-61
2021/10/11 05:12:12;;;;;;;4.68;1.30;;;;;;;;;;5036882;28;20051;-60
2021/10/11 05:14:39;;;;;;;8.10;2.63;;;;;;;;;;5038921;28;20049;-60
2021/10/11 05:17:05;;;;;;;6.25;2.17;;;;;;;;;;5039083;28;20060;-58
2021/10/11 05:19:32;;;;;;;7.75;2.50;;;;;;;;;;5041435;28;20033;-59
2021/10/11 05:22:00;;;;;;;7.78;2.17;;;;;;;;;;5032465;28;20029;-59
2021/10/11 05:24:27;;;;;;;11.75;1.88;;;;;;;;;;5032134;28;20026;-60
2021/10/11 05:26:54;;;;;;;5.18;1.50;;;;;;;;;;5032805;28;20076;-62
2021/10/11 05:29:21;;;;;;;6.78;1.45;;;;;;;;;;5037953;28;20058;-61
2021/10/11 05:31:48;;;;;;;5.88;1.23;;;;;;;;;;5031529;28;20111;-54
2021/10/11 05:34:15;;;;;;;8.18;1.27;;;;;;;;;;5034897;28;20037;-55
2021/10/11 05:36:42;;;;;;;4.43;1.75;;;;;;;;;;5040990;28;20037;-62
2021/10/11 05:39:26;;;;;;;5.43;1.58;;;;;;;;;;5031750;28;20073;-57
2021/10/11 05:41:53;;;;;;;8.20;1.83;;;;;;;;;;5037692;28;20057;-54
2021/10/11 05:44:22;;;;;;;11.25;3.67;;;;;;;;;;5040875;28;20077;-55
2021/10/11 05:46:49;;;;;;;12.80;4.63;;;;;;;;;;5038842;28;20041;-51
2021/10/11 05:49:24;;;;;;;11.73;4.07;;;;;;;;;;5035346;28;20073;-54
2021/10/11 05:51:50;;;;;;;9.00;3.85;;;;;;;;;;5040193;28;20060;-54
2021/10/11 05:54:17;;;;;;;7.47;2.50;;;;;;;;;;5029748;28;20054;-54
2021/10/11 05:56:47;;;;;;;6.07;2.10;;;;;;;;;;5039418;28;20049;-57
2021/10/11 05:59:14;;;;;;;5.32;1.60;;;;;;;;;;5032736;28;20037;-55
2021/10/11 06:01:40;;;;;;;9.32;1.80;;;;;;;;;;5035128;28;20059;-60
2021/10/11 06:04:07;;;;;;;6.82;2.00;;;;;;;;;;5032464;28;20041;-54
2021/10/11 06:06:34;;;;;;;13.25;2.90;;;;;;;;;;5036959;28;20052;-57
2021/10/11 06:09:01;;;;;;;9.77;2.80;;;;;;;;;;5039912;28;20033;-57
2021/10/11 06:11:28;;;;;;;8.13;2.00;;;;;;;;;;5045027;28;20038;-54
2021/10/11 06:13:56;;;;;;;6.88;1.60;;;;;;;;;;5041774;28;20115;-58
2021/10/11 06:16:22;;;;;;;4.88;1.35;;;;;;;;;;5026464;28;20056;-56
2021/10/11 06:18:49;;;;;;;6.63;2.08;;;;;;;;;;5025759;28;20076;-58
2021/10/11 06:21:16;;;;;;;6.65;1.90;;;;;;;;;;5044465;28;20037;-52
2021/10/11 06:23:42;;;;;;;6.30;1.85;;;;;;;;;;5041972;28;20047;-51
2021/10/11 06:26:09;;;;;;;6.38;2.33;;;;;;;;;;5045037;28;20154;-56
2021/10/11 06:28:44;;;;;;;5.97;2.08;;;;;;;;;;5044220;28;20037;-58
2021/10/11 06:31:12;;;;;;;7.07;2.17;;;;;;;;;;5023475;28;20049;-53
2021/10/11 06:33:38;;;;;;;11.10;3.15;;;;;;;;;;5025515;28;20074;-57
2021/10/11 06:36:05;;;;;;;6.40;2.28;;;;;;;;;;5021011;28;20043;-52
2021/10/11 06:38:35;;;;;;;7.07;2.30;;;;;;;;;;5040890;28;20115;-58
2021/10/11 06:41:01;;;;;;;9.05;2.65;;;;;;;;;;5051481;28;20045;-58
2021/10/11 06:43:28;;;;;;;8.38;3.03;;;;;;;;;;5025743;28;20037;-62
2021/10/11 06:45:55;;;;;;;8.38;2.92;;;;;;;;;;5023336;28;20054;-60
2021/10/11 06:48:25;;;;;;;8.15;2.60;;;;;;;;;;5007051;28;20038;-60
2021/10/11 06:50:51;;;;;;;10.98;2.45;;;;;;;;;;5010564;28;20046;-61
2021/10/11 06:53:18;;;;;;;9.75;3.80;;;;;;;;;;5024866;28;20050;-55
2021/10/11 06:55:44;;;;;;;12.50;3.05;;;;;;;;;;5022465;28;20034;-62
2021/10/11 06:58:12;;;;;;;9.38;2.50;;;;;;;;;;5026375;28;20288;-60
2021/10/11 07:00:38;;;;;;;9.57;2.88;;;;;;;;;;5022633;28;20038;-57
2021/10/11 07:03:06;;;;;;;7.18;2.60;;;;;;;;;;5025765;28;20053;-57
2021/10/11 07:05:34;;;;;;;7.70;2.40;;;;;;;;;;5023434;28;20034;-56
2021/10/11 07:08:12;;;;;;;7.05;2.20;;;;;;;;;;5044394;28;20045;-52
2021/10/11 07:10:39;;;;;;;9.10;2.30;;;;;;;;;;5037687;28;20130;-55
2021/10/11 07:13:05;;;;;;;7.43;2.03;;;;;;;;;;5045944;28;20081;-58
2021/10/11 07:15:33;;;;;;;7.22;2.33;;;;;;;;;;5045708;28;20077;-58
2021/10/11 07:18:02;;;;;;;12.65;1.80;;;;;;;;;;5042717;28;20456;-54
2021/10/11 07:20:28;;;;;;;;;;;;;;;;;;5046031;28;20045;-52
2021/10/11 07:22:56;;;;;;;5.35;1.83;;;;;;;;;;5057050;28;20002;-53
2021/10/11 07:25:23;;;;;;;11.10;1.92;;;;;;;;;;5043982;28;20041;-53
2021/10/11 07:27:53;;;;;;;10.63;1.95;;;;;;;;;;5025907;28;20037;-57
2021/10/11 07:30:19;;;;;;;7.75;2.00;;;;;;;;;;5024285;28;20107;-52
2021/10/11 07:32:46;;;;;;;9.40;2.00;;;;;;;;;;5022969;28;20073;-49
2021/10/11 07:35:13;;;;;;;8.70;2.13;;;;;;;;;;5026533;28;20092;-55
2021/10/11 07:37:39;;;;;;;9.88;2.10;;;;;;;;;;5021718;28;20066;-57
2021/10/11 07:40:08;;;;;;;10.18;2.05;;;;;;;;;;5031816;28;20040;-56
2021/10/11 07:42:34;;;;;;;6.45;1.98;;;;;;;;;;5037545;28;20033;-54
2021/10/11 07:45:02;;;;;;;10.65;2.28;;;;;;;;;;5046049;28;20049;-61
2021/10/11 07:47:29;;;;;;;12.63;3.43;;;;;;;;;;5037122;28;20111;-55
2021/10/11 07:49:55;;;;;;;7.50;2.67;;;;;;;;;;5022083;28;20112;-53
2021/10/11 07:52:22;;;;;;;7.35;2.40;;;;;;;;;;5020781;28;20038;-52
2021/10/11 07:54:48;;;;;;;6.47;2.25;;;;;;;;;;5024063;28;20112;-54
2021/10/11 07:57:16;;;;;;;5.25;1.73;;;;;;;;;;5022091;28;20041;-55
2021/10/11 07:59:43;;;;;;;9.47;2.00;;;;;;;;;;5023820;28;20042;-56
2021/10/11 08:02:10;;;;;;;5.65;1.60;;;;;;;;;;5020480;28;20045;-53
2021/10/11 08:04:36;;;;;;;5.38;1.67;;;;;;;;;;5033719;28;20111;-60
2021/10/11 08:07:04;;;;;;;5.47;1.63;;;;;;;;;;5039614;28;20034;-56
2021/10/11 08:09:32;;;;;;;6.87;1.80;;;;;;;;;;5036826;28;20049;-54
2021/10/11 08:11:58;;;;;;;6.75;1.58;;;;;;;;;;5034034;28;20351;-55
2021/10/11 08:14:29;;;;;;;9.98;1.88;;;;;;;;;;5029304;28;20049;-56
2021/10/11 08:16:55;;;;;;;8.85;1.52;;;;;;;;;;5043617;28;20041;-55
2021/10/11 08:19:22;;;;;;;7.90;1.58;;;;;;;;;;5039719;28;20033;-58
2021/10/11 08:21:49;;;;;;;8.35;1.65;;;;;;;;;;5044608;28;20124;-53
2021/10/11 08:24:15;;;;;;;5.00;1.58;;;;;;;;;;5031488;28;20044;-54
2021/10/11 08:26:42;;;;;;;8.18;1.80;;;;;;;;;;5033135;28;20061;-55
2021/10/11 08:29:14;;;;;;;8.43;1.80;;;;;;;;;;5026449;28;20053;-59
2021/10/11 08:31:42;;;;;;;9.73;1.73;;;;;;;;;;5043592;28;20048;-55
2021/10/11 08:34:08;;;;;;;14.10;2.27;;;;;;;;;;5034455;28;20599;-57
2021/10/11 08:36:35;;;;;;;8.25;1.85;;;;;;;;;;5025082;28;20275;-55
2021/10/11 08:39:06;;;;;;;7.85;1.95;;;;;;;;;;5021241;28;20084;-57
2021/10/11 08:41:32;;;;;;;6.53;1.73;;;;;;;;;;5036740;28;20081;-56
2021/10/11 08:43:59;;;;;;;9.88;2.38;;;;;;;;;;5022925;28;20040;-57
2021/10/11 08:46:26;;;;;;;15.77;2.28;;;;;;;;;;5019170;28;20113;-57
2021/10/11 08:48:54;;;;;;;9.48;1.98;;;;;;;;;;5041851;28;20041;-57
2021/10/11 08:51:20;;;;;;;11.38;2.08;;;;;;;;;;5018959;28;20037;-55
2021/10/11 08:53:47;;;;;;;12.10;2.10;;;;;;;;;;5040583;28;20026;-61
2021/10/11 08:56:14;;;;;;;14.88;3.17;;;;;;;;;;5051127;28;20049;-60
2021/10/11 08:58:45;;;;;;;15.95;3.42;;;;;;;;;;5043142;28;20029;-60
2021/10/11 09:01:11;;;;;;;11.45;2.85;;;;;;;;;;5026693;28;20278;-57
2021/10/11 09:03:38;;;;;;;18.95;2.80;;;;;;;;;;5031699;28;20122;-55
2021/10/11 09:06:07;;;;;;;7.97;2.25;;;;;;;;;;5041786;28;20041;-62
2021/10/11 09:08:34;;;;;;;15.18;2.35;;;;;;;;;;5049713;28;20037;-54
2021/10/11 09:11:01;;;;;;;16.17;2.78;;;;;;;;;;5039984;28;20042;-60
2021/10/11 09:13:29;;;;;;;19.80;3.25;;;;;;;;;;5024157;28;20053;-56
2021/10/11 09:16:07;;;;;;;18.27;3.78;;;;;;;;;;5036419;28;20037;-56
2021/10/11 09:18:35;;;;;;;11.73;3.10;;;;;;;;;;5025719;28;20491;-57
2021/10/11 09:21:02;;;;;;;10.52;1.77;;;;;;;;;;5026281;28;20040;-57
2021/10/11 09:23:30;;;;;;;17.20;2.78;;;;;;;;;;5045074;28;20049;-55
2021/10/11 09:25:58;;;;;;;9.40;2.30;;;;;;;;;;5038687;28;20064;-56
2021/10/11 09:28:27;;;;;;;15.35;2.63;;;;;;;;;;5026003;28;20041;-53
2021/10/11 09:30:54;;;;;;;13.82;2.67;;;;;;;;;;5021976;28;20467;-55
2021/10/11 09:33:22;;;;;;;17.63;2.53;;;;;;;;;;5016355;28;20121;-56
2021/10/11 09:35:56;;;;;;;12.15;2.85;;;;;;;;;;5025329;28;20034;-55
2021/10/11 09:38:26;;;;;;;13.50;2.45;;;;;;;;;;5020877;28;20045;-58
2021/10/11 09:40:58;;;;;;;10.07;1.73;;;;;;;;;;5024873;28;20042;-55
2021/10/11 09:43:27;;;;;;;8.68;1.90;;;;;;;;;;5021054;28;20123;-53
2021/10/11 09:45:54;;;;;;;13.52;1.90;;;;;;;;;;5026685;28;20038;-53
2021/10/11 09:48:22;;;;;;;10.93;2.10;;;;;;;;;;5039047;28;20045;-55
2021/10/11 09:50:48;;;;;;;12.15;2.05;;;;;;;;;;5045608;28;20033;-56
2021/10/11 09:53:15;;;;;;;17.73;2.20;;;;;;;;;;5041756;28;20060;-58
2021/10/11 09:55:44;;;;;;;11.00;1.83;;;;;;;;;;5044222;28;20030;-58
2021/10/11 09:58:15;;;;;;;23.63;1.88;;;;;;;;;;5027631;28;20037;-55
2021/10/11 10:00:42;;;;;;;26.70;2.75;;;;;;;;;;5024610;28;20041;-56
2021/10/11 10:03:12;;;;;;;19.33;2.00;;;;;;;;;;5029532;28;20049;-53
2021/10/11 10:05:40;;;;;;;11.32;1.58;;;;;;;;;;5044716;28;20041;-57
2021/10/11 10:08:08;;;;;;;8.27;1.83;;;;;;;;;;5039368;28;20026;-56
2021/10/11 10:10:35;;;;;;;9.48;1.45;;;;;;;;;;5045203;28;20056;-54
2021/10/11 10:13:02;;;;;;;9.70;1.50;;;;;;;;;;5021955;28;20046;-53
2021/10/11 10:15:31;;;;;;;10.32;1.63;;;;;;;;;;5025728;28;20042;-56
2021/10/11 10:18:07;;;;;;;16.38;1.58;;;;;;;;;;5021805;28;21202;-53
2021/10/11 10:20:34;;;;;;;12.05;2.00;;;;;;;;;;5025370;28;20042;-55
2021/10/11 10:23:00;;;;;;;9.55;1.40;;;;;;;;;;5022434;28;20049;-56
2021/10/11 10:25:27;;;;;;;8.35;1.23;;;;;;;;;;5044861;28;20046;-59
2021/10/11 10:28:07;;;;;;;9.15;1.23;;;;;;;;;;5045233;28;20048;-55
2021/10/11 10:30:35;;;;;;;12.27;1.60;;;;;;;;;;5044052;28;20059;-54
2021/10/11 10:33:03;;;;;;;10.55;1.70;;;;;;;;;;5045644;28;20041;-60
2021/10/11 10:35:31;;;;;;;9.15;1.33;;;;;;;;;;5021865;28;20046;-57
2021/10/11 10:38:00;;;;;;;12.98;1.50;;;;;;;;;;5026464;28;20074;-60
2021/10/11 10:40:28;;;;;;;8.65;1.55;;;;;;;;;;5025784;28;20124;-54
2021/10/11 10:43:05;;;;;;;17.08;2.00;;;;;;;;;;5044907;28;20119;-58
2021/10/11 10:45:35;;;;;;;8.65;1.17;;;;;;;;;;5039655;28;20052;-59
2021/10/11 10:48:16;;;;;;;7.03;1.40;;;;;;;;;;5044659;28;20041;-58
2021/10/11 10:50:43;;;;;;;10.80;1.50;;;;;;;;;;5039866;28;20045;-57
2021/10/11 10:53:09;;;;;;;15.13;1.55;;;;;;;;;;5044709;28;20045;-61
2021/10/11 10:55:38;;;;;;;13.80;1.70;;;;;;;;;;5042040;28;20123;-59
2021/10/11 10:58:08;;;;;;;11.82;1.55;;;;;;;;;;5043573;28;20040;-56
2021/10/11 11:00:35;;;;;;;14.02;2.30;;;;;;;;;;5029575;28;20073;-57
2021/10/11 11:03:01;;;;;;;7.25;1.25;;;;;;;;;;5023931;28;20045;-58
2021/10/11 11:05:30;;;;;;;11.93;1.20;;;;;;;;;;5022140;28;20037;-60
2021/10/11 11:08:00;;;;;;;11.60;1.67;;;;;;;;;;5025002;28;20034;-60
2021/10/11 11:10:31;;;;;;;8.30;1.20;;;;;;;;;;5019162;28;20038;-57
2021/10/11 11:13:00;;;;;;;8.35;1.75;;;;;;;;;;5024651;28;20126;-58
2021/10/11 11:15:28;;;;;;;9.65;1.25;;;;;;;;;;5033930;28;20057;-62
2021/10/11 11:17:56;;;;;;;18.15;1.48;;;;;;;;;;5040267;28;20074;-60
2021/10/11 11:20:24;;;;;;;5.00;1.13;;;;;;;;;;5019961;28;20610;-58
2021/10/11 11:22:51;;;;;;;;;;;;;;;;;;5023815;28;20398;-56
2021/10/11 11:25:24;;;;;;;13.52;1.20;;;;;;;;;;5021813;28;19925;-60
2021/10/11 11:27:57;;;;;;;7.38;1.30;;;;;;;;;;5024912;28;20078;-60
2021/10/11 11:30:25;;;;;;;8.63;1.10;;;;;;;;;;5022478;28;20152;-57
2021/10/11 11:32:53;;;;;;;8.43;1.23;;;;;;;;;;5020328;28;20052;-60
2021/10/11 11:35:20;;;;;;;8.75;1.02;;;;;;;;;;5025187;28;20049;-61
2021/10/11 11:37:48;;;;;;;4.53;1.33;;;;;;;;;;5035786;28;20039;-58
2021/10/11 11:40:17;;;;;;;2.90;0.90;;;;;;;;;;5044672;28;20065;-61
2021/10/11 11:42:46;;;;;;;5.90;1.00;;;;;;;;;;5038350;28;20048;-60
2021/10/11 11:45:12;;;;;;;4.07;1.27;;;;;;;;;;5044520;28;20187;-61
2021/10/11 11:47:38;;;;;;;8.55;1.15;;;;;;;;;;5026838;28;20041;-54
2021/10/11 11:50:09;;;;;;;7.00;1.08;;;;;;;;;;5022920;28;20046;-56
2021/10/11 11:52:35;;;;;;;5.43;0.90;;;;;;;;;;5019409;28;20042;-63
2021/10/11 11:55:02;;;;;;;7.10;0.90;;;;;;;;;;5024105;28;20045;-59
2021/10/11 11:57:40;;;;;;;4.97;0.90;;;;;;;;;;5021887;28;20053;-58
2021/10/11 12:00:09;;;;;;;12.90;1.00;;;;;;;;;;5026644;28;20073;-58
2021/10/11 12:02:36;;;;;;;7.38;0.80;;;;;;;;;;5027039;28;20033;-58
2021/10/11 12:05:03;;;;;;;9.68;1.33;;;;;;;;;;5042861;28;20071;-59
2021/10/11 12:07:29;;;;;;;4.78;0.80;;;;;;;;;;5038503;28;20056;-62
2021/10/11 12:09:57;;;;;;;6.57;1.13;;;;;;;;;;5045284;28;20037;-57
2021/10/11 12:12:32;;;;;;;5.45;0.80;;;;;;;;;;5042147;28;20088;-60
2021/10/11 12:14:58;;;;;;;5.88;0.80;;;;;;;;;;5027560;28;20137;-57
2021/10/11 12:17:32;;;;;;;6.82;1.00;;;;;;;;;;5020896;28;20033;-58
2021/10/11 12:19:59;;;;;;;6.72;0.88;;;;;;;;;;5020774;28;20056;-59
2021/10/11 12:22:28;;;;;;;6.93;0.90;;;;;;;;;;5023296;28;20044;-58
2021/10/11 12:24:57;;;;;;;9.23;0.93;;;;;;;;;;5041069;28;20048;-58
2021/10/11 12:27:26;;;;;;;4.53;0.70;;;;;;;;;;5043647;28;20061;-58
2021/10/11 12:29:54;;;;;;;;;;;;;;;;;;5037858;28;20041;-59
2021/10/11 12:32:27;;;;;;;4.47;0.80;;;;;;;;;;5042281;28;19936;-61
2021/10/11 12:34:56;;;;;;;7.97;0.75;;;;;;;;;;5036119;28;20045;-57
2021/10/11 12:37:23;;;;;;;3.75;0.75;;;;;;;;;;5040030;28;20062;-58
2021/10/11 12:39:52;;;;;;;4.22;0.80;;;;;;;;;;5051590;28;20127;-59
2021/10/11 12:42:19;;;;;;;6.55;1.20;;;;;;;;;;5029923;28;20455;-59
2021/10/11 12:44:49;;;;;;;3.37;0.73;;;;;;;;;;5030358;28;20190;-59
2021/10/11 12:47:22;;;;;;;9.80;1.42;;;;;;;;;;5043303;28;20070;-59
2021/10/11 12:49:53;;;;;;;10.00;1.20;;;;;;;;;;5026889;28;20074;-57
2021/10/11 12:52:30;;;;;;;8.40;0.90;;;;;;;;;;5026027;28;20062;-57
2021/10/11 12:55:04;;;;;;;7.95;1.10;;;;;;;;;;5031351;28;20056;-60
2021/10/11 12:57:31;;;;;;;8.68;0.88;;;;;;;;;;5046682;28;20029;-60
2021/10/11 12:59:57;;;;;;;5.03;0.70;;;;;;;;;;5035116;28;20034;-59
2021/10/11 13:02:24;;;;;;;3.78;0.88;;;;;;;;;;5026626;28;20040;-60
2021/10/11 13:04:50;;;;;;;6.45;1.08;;;;;;;;;;5022512;28;20038;-61
2021/10/11 13:07:18;;;;;;;6.78;0.90;;;;;;;;;;5027837;28;20056;-60
2021/10/11 13:09:46;;;;;;;5.28;0.73;;;;;;;;;;5022604;28;20058;-60
2021/10/11 13:12:13;;;;;;;7.20;1.00;;;;;;;;;;5027160;28;20034;-58
2021/10/11 13:14:39;;;;;;;8.18;1.00;;;;;;;;;;5023260;28;20119;-58
2021/10/11 13:17:06;;;;;;;5.68;0.88;;;;;;;;;;5027541;28;20056;-58
2021/10/11 13:19:37;;;;;;;8.02;0.93;;;;;;;;;;5026355;28;20037;-61
2021/10/11 13:22:04;;;;;;;5.93;0.93;;;;;;;;;;5020834;28;20071;-59
2021/10/11 13:24:30;;;;;;;9.05;1.35;;;;;;;;;;5025257;28;20034;-59
2021/10/11 13:26:58;;;;;;;10.48;1.00;;;;;;;;;;5024681;28;20033;-60
2021/10/11 13:29:57;;;;;;;6.22;1.00;;;;;;;;;;5025937;28;20038;-62
2021/10/11 14:27:41;;;;;;;6.25;1.52;;;;;;;;;;5021184;28;20041;-57
2021/10/11 14:30:13;;;;;;;11.10;1.20;;;;;;;;;;5043280;28;20066;-60
2021/10/11 14:32:53;;;;;;;7.85;1.15;;;;;;;;;;5039739;28;20037;-58
2021/10/11 16:01:02;;;;;;;4.07;0.63;;;;;;;;;;4964684;28;20051;-53
2021/10/11 16:06:13;;;;;;;5.38;1.00;;;;;;;;;;5058122;28;20025;-57
2021/10/11 16:08:40;;;;;;;9.68;1.00;;;;;;;;;;5043510;28;20053;-56
2021/10/11 16:11:08;;;;;;;6.18;0.90;;;;;;;;;;5039736;28;20058;-57
2021/10/11 16:13:35;;;;;;;4.22;0.80;;;;;;;;;;5022299;28;20034;-56
2021/10/11 16:16:01;;;;;;;3.65;0.90;;;;;;;;;;5024516;28;20045;-51
2021/10/11 16:18:31;;;;;;;4.88;0.68;;;;;;;;;;5037454;28;20060;-53
2021/10/11 16:20:58;;;;;;;7.22;0.95;;;;;;;;;;5043404;28;20037;-55
2021/10/11 16:23:24;;;;;;;8.43;1.30;;;;;;;;;;5038798;28;20026;-57
2021/10/11 16:25:51;;;;;;;7.55;1.95;;;;;;;;;;5043975;28;20041;-58
2021/10/11 16:28:19;;;;;;;9.70;1.10;;;;;;;;;;5033946;28;20064;-57
2021/10/11 16:30:46;;;;;;;5.85;0.90;;;;;;;;;;5042603;28;20069;-57
2021/10/11 16:33:12;;;;;;;4.95;0.98;;;;;;;;;;5030790;28;20404;-57
2021/10/11 16:35:39;;;;;;;7.32;0.90;;;;;;;;;;5021875;28;20041;-55
2021/10/11 16:38:05;;;;;;;6.50;0.95;;;;;;;;;;5017988;28;20054;-56
2021/10/11 16:40:32;;;;;;;6.88;2.47;;;;;;;;;;5021908;28;20061;-58
2021/10/11 16:42:58;;;;;;;18.27;5.35;;;;;;;;;;5019435;28;20061;-58
2021/10/11 16:45:26;;;;;;;12.13;4.47;;;;;;;;;;5040707;28;20045;-56
2021/10/11 16:47:53;;;;;;;11.60;1.70;;;;;;;;;;5039040;28;20052;-57
2021/10/11 16:50:20;;;;;;;9.82;1.00;;;;;;;;;;5020589;28;20053;-57
2021/10/11 16:52:46;;;;;;;6.32;1.35;;;;;;;;;;5023858;28;20045;-56
2021/10/11 16:55:13;;;;;;;4.22;1.05;;;;;;;;;;5029972;28;20065;-57
2021/10/11 16:57:43;;;;;;;5.22;0.90;;;;;;;;;;5035527;28;20041;-60
2021/10/11 17:00:12;;;;;;;7.68;1.25;;;;;;;;;;5031591;28;20045;-59
2021/10/11 17:02:40;;;;;;;8.20;1.30;;;;;;;;;;5031946;28;20044;-57
2021/10/11 17:05:07;;;;;;;5.78;1.08;;;;;;;;;;5028906;28;20085;-58
2021/10/11 17:07:33;;;;;;;6.22;1.35;;;;;;;;;;5032171;28;20064;-58